Time;durP1;ratioP1;P1;durP2;ratioP2;P2;SDS_P1;SDS_P2;PMS_P1;PMS_P2;Temp;Humidity;BMP_temperature;BMP_pressure;BME280_temperature;BME280_humidity;BME280_pressure;Samples;Min_cycle;Max_cycle;Signal;HPM_P1;HPM_P2
2021/06/16 00:00:45;;;;;;;6.17;5.77;;;;;;;16.02;91.05;98080.38;5122454;27;20211;-71
2021/06/16 00:03:13;;;;;;;6.50;6.00;;;;;;;16.10;90.90;98074.91;5122134;27;20749;-70
2021/06/16 00:05:42;;;;;;;6.97;6.47;;;;;;;15.88;92.15;98066.13;5117267;27;20201;-69
2021/06/16 00:08:11;;;;;;;6.87;6.47;;;;;;;15.88;92.09;98071.47;5117594;27;20224;-70
2021/06/16 00:10:39;;;;;;;7.03;6.53;;;;;;;15.88;92.80;98068.78;5123766;27;20696;-71
2021/06/16 00:13:08;;;;;;;6.87;6.47;;;;;;;15.80;92.66;98077.78;5060425;27;20653;-70
2021/06/16 00:15:38;;;;;;;7.67;6.90;;;;;;;15.75;93.33;98078.34;5123574;27;20205;-70
2021/06/16 00:18:07;;;;;;;7.43;6.83;;;;;;;15.71;93.46;98079.75;5123316;27;20228;-71
2021/06/16 00:20:36;;;;;;;7.33;6.63;;;;;;;15.66;93.77;98079.53;5120515;27;20231;-71
2021/06/16 00:23:04;;;;;;;7.20;6.60;;;;;;;15.61;94.65;98077.44;5119527;27;20210;-71
2021/06/16 00:25:33;;;;;;;7.57;6.93;;;;;;;15.60;94.23;98077.63;5121905;27;20209;-71
2021/06/16 00:28:02;;;;;;;8.03;7.23;;;;;;;15.60;94.96;98073.09;5119455;27;20225;-72
2021/06/16 00:30:31;;;;;;;6.67;6.27;;;;;;;15.69;94.86;98078.28;5122122;27;20235;-71
2021/06/16 00:32:59;;;;;;;7.50;6.97;;;;;;;15.63;94.46;98078.06;5121683;27;20204;-72
2021/06/16 00:35:27;;;;;;;7.77;7.07;;;;;;;15.49;95.24;98082.47;5123246;27;20205;-72
2021/06/16 00:37:56;;;;;;;7.27;6.77;;;;;;;15.43;95.71;98077.09;5114940;27;20225;-72
2021/06/16 00:40:27;;;;;;;7.57;7.07;;;;;;;15.48;95.59;98088.03;5121083;27;20222;-71
2021/06/16 00:42:57;;;;;;;7.90;7.37;;;;;;;15.53;95.16;98082.06;5121001;27;20210;-72
2021/06/16 00:45:25;;;;;;;8.60;7.77;;;;;;;15.37;96.08;98075.19;5120668;27;20212;-71
2021/06/16 00:47:56;;;;;;;8.03;7.33;;;;;;;15.32;96.89;98078.44;5118303;27;20243;-72
2021/06/16 00:50:26;;;;;;;9.07;8.10;;;;;;;15.37;96.21;98081.34;5123137;27;20606;-72
2021/06/16 00:52:53;;;;;;;7.93;7.33;;;;;;;15.32;96.47;98078.44;5121020;27;20202;-72
2021/06/16 00:55:22;;;;;;;9.13;8.17;;;;;;;15.32;96.64;98089.94;5125345;27;20205;-72
2021/06/16 00:57:51;;;;;;;7.63;7.03;;;;;;;15.34;96.40;98084.41;5121471;27;20748;-71
2021/06/16 01:00:21;;;;;;;8.13;7.43;;;;;;;15.39;96.13;98084.66;5122480;27;20205;-72
2021/06/16 01:02:55;;;;;;;8.23;7.53;;;;;;;15.29;96.62;98084.16;5122361;27;20196;-73
2021/06/16 01:05:25;;;;;;;7.90;7.13;;;;;;;15.41;95.40;98079.13;5122150;27;20196;-72
2021/06/16 01:07:58;;;;;;;8.40;7.80;;;;;;;15.29;96.22;98086.84;5123734;27;20235;-71
2021/06/16 01:10:34;;;;;;;7.53;6.90;;;;;;;15.36;95.62;98079.69;5123319;27;20224;-72
2021/06/16 01:13:07;;;;;;;8.47;7.77;;;;;;;15.40;95.83;98085.50;5124129;27;20196;-71
2021/06/16 01:15:52;;;;;;;7.63;7.13;;;;;;;15.25;97.21;98091.72;5123406;27;20209;-72
2021/06/16 01:18:23;;;;;;;7.83;7.23;;;;;;;15.16;97.53;98087.53;5122325;27;20801;-72
2021/06/16 01:20:53;;;;;;;8.50;7.80;;;;;;;15.14;98.40;98085.03;5121472;27;20219;-71
2021/06/16 01:24:05;;;;;;;8.17;7.57;;;;;;;15.20;96.93;98086.13;5123521;27;20214;-72
2021/06/16 01:26:40;;;;;;;9.23;8.43;;;;;;;15.17;97.11;98094.53;5082731;27;20555;-72
2021/06/16 01:29:14;;;;;;;7.93;7.27;;;;;;;15.17;97.31;98087.34;5122649;27;20203;-72
2021/06/16 01:31:42;;;;;;;8.73;7.97;;;;;;;15.13;97.59;98087.91;5118586;27;20582;-71
2021/06/16 01:34:11;;;;;;;9.00;8.07;;;;;;;15.07;97.92;98094.03;5119674;27;20209;-72
2021/06/16 01:36:41;;;;;;;7.90;7.40;;;;;;;14.95;98.95;98085.69;5122639;27;20243;-71
2021/06/16 01:39:10;;;;;;;9.73;8.83;;;;;;;14.84;100.00;98087.84;5123010;27;20201;-72
2021/06/16 01:41:40;;;;;;;8.57;7.97;;;;;;;14.85;100.00;98083.31;5122539;27;20204;-72
2021/06/16 01:44:09;;;;;;;8.97;8.27;;;;;;;14.83;100.00;98083.53;5124512;27;20204;-72
2021/06/16 01:46:37;;;;;;;7.13;6.63;;;;;;;14.80;100.00;98083.06;5120522;27;20716;-72
2021/06/16 01:49:05;;;;;;;7.97;7.37;;;;;;;14.82;100.00;98084.56;5123100;27;20208;-71
2021/06/16 01:51:34;;;;;;;9.10;8.30;;;;;;;14.73;100.00;98083.84;5120629;27;20233;-70
2021/06/16 01:54:03;;;;;;;7.63;7.13;;;;;;;14.69;100.00;98079.88;5120841;27;20204;-70
2021/06/16 01:56:31;;;;;;;8.43;7.63;;;;;;;14.68;100.00;98086.22;5123710;27;20234;-72
2021/06/16 01:59:02;;;;;;;8.50;7.90;;;;;;;14.72;100.00;98087.50;5120687;27;20208;-71
2021/06/16 02:01:30;;;;;;;8.97;8.37;;;;;;;14.69;100.00;98084.34;5122587;27;20197;-71
2021/06/16 02:03:59;;;;;;;8.50;7.70;;;;;;;14.73;100.00;98085.66;5120136;27;20204;-71
2021/06/16 02:06:30;;;;;;;8.50;7.90;;;;;;;14.72;100.00;98082.19;5122994;27;20232;-72
2021/06/16 02:09:00;;;;;;;9.10;8.47;;;;;;;14.84;100.00;98085.19;5117941;27;20213;-71
2021/06/16 02:11:29;;;;;;;8.97;8.03;;;;;;;14.73;100.00;98077.66;5120933;27;20227;-71
2021/06/16 02:14:01;;;;;;;9.30;8.50;;;;;;;14.46;100.00;98080.00;5121137;27;20205;-71
2021/06/16 02:16:37;;;;;;;8.37;7.67;;;;;;;14.44;100.00;98074.84;5121765;27;20225;-71
2021/06/16 02:19:08;;;;;;;9.20;8.27;;;;;;;14.38;100.00;98086.28;5121704;27;20403;-72
2021/06/16 02:21:36;;;;;;;9.30;8.60;;;;;;;14.48;100.00;98081.47;5122065;27;20203;-71
2021/06/16 02:24:05;;;;;;;8.53;7.83;;;;;;;14.52;100.00;98078.41;5122915;27;20692;-72
2021/06/16 02:26:33;;;;;;;8.53;7.83;;;;;;;14.48;100.00;98070.00;5122246;27;20251;-70
2021/06/16 02:29:01;;;;;;;9.17;8.47;;;;;;;14.62;100.00;98077.13;5122127;27;20216;-71
2021/06/16 02:31:29;;;;;;;9.17;7.87;;;;;;;14.50;100.00;98073.28;5121045;27;20232;-70
2021/06/16 02:33:58;;;;;;;8.20;7.47;;;;;;;14.45;100.00;98073.03;5121863;27;20208;-71
2021/06/16 02:36:28;;;;;;;9.97;9.07;;;;;;;14.52;100.00;98062.41;5120106;28;20222;-72
2021/06/16 02:38:59;;;;;;;8.40;7.80;;;;;;;14.46;100.00;98064.81;5120401;28;20205;-71
2021/06/16 02:41:27;;;;;;;9.93;9.20;;;;;;;14.32;100.00;98058.50;5118755;28;20208;-71
2021/06/16 02:43:56;;;;;;;8.43;7.73;;;;;;;14.27;100.00;98062.75;5119162;28;20211;-72
2021/06/16 02:46:24;;;;;;;8.77;8.17;;;;;;;14.27;100.00;98063.56;5119563;28;20232;-71
2021/06/16 02:48:53;;;;;;;8.07;7.47;;;;;;;14.49;100.00;98066.31;5121842;28;20216;-71
2021/06/16 02:51:22;;;;;;;10.30;9.37;;;;;;;14.39;100.00;98065.75;5120265;28;20762;-72
2021/06/16 02:53:51;;;;;;;9.00;8.17;;;;;;;14.31;100.00;98058.72;5118221;28;20205;-71
2021/06/16 02:56:20;;;;;;;8.77;8.07;;;;;;;14.31;100.00;98066.72;5117574;28;20237;-71
2021/06/16 02:58:48;;;;;;;8.87;8.30;;;;;;;14.41;100.00;98067.22;5121047;28;20204;-71
2021/06/16 03:01:18;;;;;;;8.80;8.10;;;;;;;14.41;100.00;98069.91;5120704;28;20201;-72
2021/06/16 03:03:49;;;;;;;9.47;8.67;;;;;;;14.36;100.00;98066.13;5120996;28;20395;-73
2021/06/16 03:06:19;;;;;;;9.53;8.47;;;;;;;14.27;100.00;98065.44;5121740;27;20225;-71
2021/06/16 03:08:50;;;;;;;8.93;8.13;;;;;;;14.32;100.00;98066.50;5120587;27;20771;-71
2021/06/16 03:11:19;;;;;;;8.83;8.13;;;;;;;14.26;100.00;98061.13;5116758;28;20685;-73
2021/06/16 03:13:48;;;;;;;8.43;7.73;;;;;;;14.28;100.00;98062.56;5120510;27;20202;-73
2021/06/16 03:16:17;;;;;;;8.63;7.93;;;;;;;14.33;100.00;98062.81;5123933;27;20604;-73
2021/06/16 03:18:45;;;;;;;7.97;7.40;;;;;;;14.25;100.00;98073.59;5122457;27;20206;-71
2021/06/16 03:21:14;;;;;;;8.43;7.73;;;;;;;14.11;100.00;98071.78;5123134;27;20201;-69
2021/06/16 03:23:43;;;;;;;8.60;8.00;;;;;;;14.12;100.00;98071.59;5122232;27;20201;-70
2021/06/16 03:26:13;;;;;;;9.03;8.10;;;;;;;14.13;100.00;98073.25;5118596;27;20720;-69
2021/06/16 03:28:41;;;;;;;9.23;8.53;;;;;;;14.07;100.00;98070.50;5122305;27;20205;-68
2021/06/16 03:31:10;;;;;;;9.47;8.57;;;;;;;13.99;100.00;98074.88;5124017;27;20239;-69
2021/06/16 03:33:38;;;;;;;9.67;8.67;;;;;;;14.27;100.00;98065.44;5126349;27;20618;-69
2021/06/16 03:36:06;;;;;;;8.17;7.57;;;;;;;14.38;100.00;98066.75;5125905;27;20691;-67
2021/06/16 03:38:37;;;;;;;8.83;8.13;;;;;;;14.26;100.00;98059.25;5124043;27;20701;-69
2021/06/16 03:41:05;;;;;;;9.77;9.07;;;;;;;14.30;100.00;98068.53;5123495;27;20212;-66
2021/06/16 03:43:36;;;;;;;8.77;8.17;;;;;;;14.36;100.00;98074.13;5121269;27;20205;-68
2021/06/16 03:46:05;;;;;;;9.80;9.00;;;;;;;14.24;100.00;98074.63;5119716;27;20464;-69
2021/06/16 03:48:34;;;;;;;9.77;9.07;;;;;;;14.28;100.00;98067.09;5118538;27;20292;-69
2021/06/16 03:51:02;;;;;;;9.17;8.57;;;;;;;14.30;100.00;98068.53;5121148;27;20220;-67
2021/06/16 03:53:30;;;;;;;9.37;8.57;;;;;;;14.42;100.00;98073.41;5121520;27;20197;-68
2021/06/16 03:55:59;;;;;;;8.93;8.23;;;;;;;14.61;100.00;98075.47;5123635;27;20213;-69
2021/06/16 03:58:27;;;;;;;9.50;8.80;;;;;;;14.68;100.00;98075.53;5125483;27;20200;-68
2021/06/16 04:00:56;;;;;;;9.60;8.87;;;;;;;14.60;100.00;98073.81;5122781;27;20683;-68
2021/06/16 04:03:24;;;;;;;9.17;8.37;;;;;;;14.81;100.00;98080.22;5122551;27;20205;-70
2021/06/16 04:05:52;;;;;;;9.60;8.80;;;;;;;14.72;100.00;98076.84;5122332;27;20239;-69
2021/06/16 04:08:21;;;;;;;9.50;8.80;;;;;;;14.77;100.00;98078.94;5123173;27;20617;-72
2021/06/16 04:10:49;;;;;;;10.23;9.50;;;;;;;14.88;99.01;98074.94;5125768;27;20211;-72
2021/06/16 04:13:18;;;;;;;10.40;9.40;;;;;;;15.00;96.74;98064.59;5123523;27;20201;-72
2021/06/16 04:15:46;;;;;;;11.00;9.97;;;;;;;14.89;98.53;98066.75;5125434;27;20714;-70
2021/06/16 04:18:17;;;;;;;10.40;9.37;;;;;;;15.09;97.43;98071.44;5131011;27;20197;-65
2021/06/16 04:20:45;;;;;;;10.63;9.87;;;;;;;15.22;95.91;98064.59;5123517;27;20201;-65
2021/06/16 04:23:15;;;;;;;9.17;8.47;;;;;;;15.15;95.93;98059.19;5125105;27;20200;-64
2021/06/16 04:25:43;;;;;;;9.83;9.07;;;;;;;15.17;97.02;98067.84;5121995;27;20201;-65
2021/06/16 04:28:11;;;;;;;10.37;9.47;;;;;;;15.18;97.31;98059.66;5123851;27;20217;-65
2021/06/16 04:30:39;;;;;;;11.20;10.10;;;;;;;15.26;95.61;98063.19;5124726;27;20684;-65
2021/06/16 04:33:08;;;;;;;10.77;9.97;;;;;;;15.58;92.54;98063.66;5125089;27;20239;-66
2021/06/16 04:35:38;;;;;;;10.70;9.80;;;;;;;15.62;91.75;98054.22;5122465;27;20711;-64
2021/06/16 04:38:05;;;;;;;11.00;10.07;;;;;;;15.60;92.88;98051.75;5123572;27;20421;-65
2021/06/16 04:40:34;;;;;;;10.33;9.30;;;;;;;15.55;94.25;98048.81;5120817;27;20216;-65
2021/06/16 04:43:02;;;;;;;10.33;9.53;;;;;;;15.77;92.24;98048.78;5122084;27;20663;-72
2021/06/16 04:45:30;;;;;;;10.67;9.60;;;;;;;15.90;91.28;98050.72;5122692;27;20217;-72
2021/06/16 04:47:58;;;;;;;9.83;9.13;;;;;;;16.02;90.60;98059.00;5122966;27;20704;-72
2021/06/16 04:50:25;;;;;;;10.83;10.03;;;;;;;16.14;88.72;98057.44;5123757;27;20427;-71
2021/06/16 04:52:55;;;;;;;11.07;10.17;;;;;;;16.24;88.00;98062.41;5120818;27;20942;-72
2021/06/16 04:55:23;;;;;;;10.70;9.80;;;;;;;16.31;88.19;98065.09;5122974;27;20205;-72
2021/06/16 04:57:51;;;;;;;11.13;10.20;;;;;;;16.41;87.56;98052.19;5120989;27;20225;-72
2021/06/16 05:00:22;;;;;;;11.73;10.83;;;;;;;16.46;87.47;98055.06;5124018;27;20197;-71
2021/06/16 05:02:53;;;;;;;12.70;11.70;;;;;;;16.57;85.76;98055.53;5124607;27;20200;-72
2021/06/16 05:05:22;;;;;;;12.63;11.70;;;;;;;16.56;86.42;98053.91;5122725;27;20201;-72
2021/06/16 05:07:50;;;;;;;11.97;10.87;;;;;;;16.54;86.19;98056.75;5118002;27;20223;-72
2021/06/16 05:10:20;;;;;;;11.53;10.73;;;;;;;16.53;86.70;98056.97;5118138;27;20262;-71
2021/06/16 05:12:48;;;;;;;12.10;11.10;;;;;;;16.85;84.84;98051.88;5122331;27;20221;-72
2021/06/16 05:15:17;;;;;;;12.70;11.47;;;;;;;16.88;83.61;98054.19;5122999;27;20209;-71
2021/06/16 05:17:46;;;;;;;11.87;11.00;;;;;;;16.77;84.08;98056.41;5123775;27;20228;-72
2021/06/16 05:20:15;;;;;;;12.50;11.50;;;;;;;16.96;81.61;98059.34;5118945;27;20673;-71
2021/06/16 05:22:48;;;;;;;11.77;10.53;;;;;;;16.95;82.29;98046.13;5123294;27;20669;-72
2021/06/16 05:25:16;;;;;;;11.83;10.83;;;;;;;17.02;83.27;98047.00;5121709;27;20695;-72
2021/06/16 05:27:46;;;;;;;11.83;10.83;;;;;;;17.06;82.95;98045.59;5124427;27;20318;-72
2021/06/16 05:30:16;;;;;;;11.37;10.57;;;;;;;17.15;82.74;98051.53;5118451;27;20292;-70
2021/06/16 05:32:44;;;;;;;11.70;10.83;;;;;;;17.25;81.43;98041.28;5121070;27;20588;-71
2021/06/16 05:35:13;;;;;;;11.50;10.50;;;;;;;17.42;80.48;98049.69;5121791;27;20284;-71
2021/06/16 05:37:44;;;;;;;11.10;10.10;;;;;;;17.42;79.36;98048.88;5118227;27;20561;-72
2021/06/16 05:40:13;;;;;;;11.47;10.37;;;;;;;17.55;78.99;98051.53;5121233;27;20203;-71
2021/06/16 05:42:41;;;;;;;10.17;9.47;;;;;;;17.63;78.76;98054.03;5118943;27;20208;-72
2021/06/16 05:45:12;;;;;;;9.70;8.90;;;;;;;17.58;78.79;98048.44;5120963;27;20209;-72
2021/06/16 05:47:40;;;;;;;13.17;12.10;;;;;;;17.69;80.79;98049.66;5120361;27;20220;-71
2021/06/16 05:50:10;;;;;;;12.13;11.23;;;;;;;17.64;80.82;98047.63;5121869;27;20207;-72
2021/06/16 05:52:38;;;;;;;12.50;11.40;;;;;;;17.72;79.64;98051.13;5120695;27;20210;-72
2021/06/16 05:55:07;;;;;;;12.13;11.13;;;;;;;17.74;79.81;98049.84;5122846;27;20212;-71
2021/06/16 05:57:35;;;;;;;11.93;10.93;;;;;;;17.86;80.16;98047.38;5121285;27;20220;-72
2021/06/16 06:00:04;;;;;;;12.10;11.20;;;;;;;18.02;78.11;98048.78;5120175;27;20212;-71
2021/06/16 06:02:45;;;;;;;11.57;10.73;;;;;;;18.24;77.28;98053.91;5122731;27;20193;-71
2021/06/16 06:05:13;;;;;;;12.30;11.20;;;;;;;18.22;76.42;98048.72;5122784;27;20204;-70
2021/06/16 06:07:41;;;;;;;12.57;11.37;;;;;;;18.05;77.51;98044.88;5122410;27;20229;-71
2021/06/16 06:10:09;;;;;;;11.90;10.87;;;;;;;18.26;76.67;98046.47;5122352;27;20204;-72
2021/06/16 06:12:38;;;;;;;11.60;10.57;;;;;;;18.34;76.66;98042.69;5122761;27;21049;-72
2021/06/16 06:15:09;;;;;;;11.97;10.97;;;;;;;18.56;76.38;98034.34;5123013;27;20329;-74
2021/06/16 06:17:37;;;;;;;12.50;11.40;;;;;;;18.61;76.24;98045.25;5122935;27;20379;-71
2021/06/16 06:20:07;;;;;;;11.60;10.50;;;;;;;18.80;74.96;98044.31;5123463;27;20201;-72
2021/06/16 06:22:36;;;;;;;12.20;11.00;;;;;;;18.94;74.26;98044.22;5123259;27;20570;-72
2021/06/16 06:25:05;;;;;;;11.77;10.80;;;;;;;19.03;74.18;98040.25;5123104;27;20205;-71
2021/06/16 06:27:33;;;;;;;11.70;10.60;;;;;;;19.21;74.08;98036.81;5121645;27;20242;-71
2021/06/16 06:30:01;;;;;;;10.97;10.07;;;;;;;19.50;72.77;98041.75;5124154;27;20209;-71
2021/06/16 06:32:29;;;;;;;12.50;11.30;;;;;;;19.62;71.75;98036.47;5122295;27;20229;-71
2021/06/16 06:34:57;;;;;;;11.93;10.53;;;;;;;19.75;70.24;98040.91;5123254;28;20200;-72
2021/06/16 06:37:26;;;;;;;11.10;10.20;;;;;;;19.89;70.32;98033.50;5119822;28;20224;-72
2021/06/16 06:39:54;;;;;;;11.83;10.80;;;;;;;19.88;69.97;98038.06;5121681;28;20204;-72
2021/06/16 06:42:22;;;;;;;12.30;10.70;;;;;;;20.00;69.74;98032.78;5121491;27;20303;-72
2021/06/16 06:44:50;;;;;;;12.77;11.50;;;;;;;19.94;69.82;98036.38;5122344;27;20208;-72
2021/06/16 06:47:20;;;;;;;12.33;10.33;;;;;;;20.14;69.72;98032.66;5122964;27;20643;-71
2021/06/16 06:49:48;;;;;;;11.20;9.93;;;;;;;20.32;68.01;98034.50;5123878;27;20204;-71
2021/06/16 06:52:16;;;;;;;13.27;9.47;;;;;;;20.56;67.01;98032.75;5125067;27;20395;-72
2021/06/16 06:54:45;;;;;;;9.67;8.87;;;;;;;20.49;66.96;98035.50;5128186;27;20204;-71
2021/06/16 06:57:13;;;;;;;10.83;9.30;;;;;;;20.47;67.25;98020.66;5126138;27;20614;-70
2021/06/16 06:59:41;;;;;;;9.73;8.93;;;;;;;20.91;64.87;98023.16;5126600;27;20201;-72
2021/06/16 07:02:09;;;;;;;9.20;8.33;;;;;;;20.95;64.95;98030.56;5123700;27;20228;-72
2021/06/16 07:04:37;;;;;;;10.20;8.23;;;;;;;20.96;65.40;98031.34;5124619;27;20280;-72
2021/06/16 07:07:05;;;;;;;9.63;7.90;;;;;;;21.32;63.11;98028.75;5125061;27;20232;-72
2021/06/16 07:09:33;;;;;;;9.23;8.10;;;;;;;21.48;63.20;98025.34;5125597;27;20489;-69
2021/06/16 07:12:03;;;;;;;10.97;8.03;;;;;;;21.50;61.13;98019.72;5125537;27;20213;-71
2021/06/16 07:14:31;;;;;;;7.90;7.30;;;;;;;21.52;62.76;98013.03;5125480;27;20251;-72
2021/06/16 07:16:59;;;;;;;7.97;7.17;;;;;;;21.80;61.61;98018.81;5125498;27;20236;-71
2021/06/16 07:19:27;;;;;;;8.43;7.73;;;;;;;21.80;62.03;98022.31;5126240;27;20205;-72
2021/06/16 07:21:55;;;;;;;7.50;6.90;;;;;;;21.95;62.46;98013.72;5127042;27;20215;-71
2021/06/16 07:24:23;;;;;;;7.90;7.23;;;;;;;21.95;61.19;98016.41;5123890;27;20196;-72
2021/06/16 07:26:51;;;;;;;8.67;7.77;;;;;;;22.10;60.57;98020.50;5124410;27;20235;-73
2021/06/16 07:29:21;;;;;;;7.60;7.13;;;;;;;22.55;58.91;98017.09;5123299;27;20232;-71
2021/06/16 07:31:48;;;;;;;8.33;7.37;;;;;;;22.79;57.29;98025.06;5126088;27;20200;-72
2021/06/16 07:34:17;;;;;;;7.17;6.53;;;;;;;22.77;57.44;98018.28;5124986;27;20700;-71
2021/06/16 07:36:44;;;;;;;7.37;6.67;;;;;;;22.96;57.25;98017.00;5126086;27;20225;-72
2021/06/16 07:39:12;;;;;;;7.67;7.07;;;;;;;23.01;56.53;98016.28;5123753;27;20671;-71
2021/06/16 07:41:40;;;;;;;8.17;7.53;;;;;;;23.26;55.95;98013.19;5126577;27;20696;-72
2021/06/16 07:44:08;;;;;;;10.47;6.90;;;;;;;23.34;57.35;98016.53;5125491;27;20228;-72
2021/06/16 07:46:38;;;;;;;8.07;7.27;;;;;;;23.55;54.96;98023.06;5124038;27;20229;-72
2021/06/16 07:49:06;;;;;;;9.57;7.73;;;;;;;23.71;55.37;98021.41;5123905;27;20205;-71
2021/06/16 07:51:34;;;;;;;7.77;6.77;;;;;;;23.95;52.40;98016.59;5124611;27;20208;-73
2021/06/16 07:54:02;;;;;;;7.43;6.73;;;;;;;23.90;54.44;98019.22;5124919;27;20363;-72
2021/06/16 07:56:30;;;;;;;7.23;6.53;;;;;;;23.92;54.29;98025.22;5125796;27;20218;-71
2021/06/16 07:58:58;;;;;;;7.60;6.93;;;;;;;23.87;54.17;98019.72;5131204;27;20213;-72
2021/06/16 08:01:26;;;;;;;8.07;7.37;;;;;;;24.27;52.22;98017.84;5144152;27;20593;-73
2021/06/16 08:03:56;;;;;;;8.13;7.47;;;;;;;23.99;53.47;98012.31;5136485;27;20718;-72
2021/06/16 08:06:23;;;;;;;7.50;6.87;;;;;;;24.08;53.55;98015.44;5123488;27;20784;-72
2021/06/16 08:08:51;;;;;;;7.30;6.60;;;;;;;24.17;53.77;98018.53;5119982;27;21222;-72
2021/06/16 08:11:21;;;;;;;7.87;7.10;;;;;;;24.53;51.21;98013.50;5124191;27;20215;-71
2021/06/16 08:13:49;;;;;;;6.80;6.27;;;;;;;24.52;50.46;98011.88;5124237;27;20734;-72
2021/06/16 08:16:18;;;;;;;7.57;6.90;;;;;;;24.43;51.05;98010.66;5124016;27;20226;-71
2021/06/16 08:18:46;;;;;;;7.07;6.47;;;;;;;24.66;51.30;98006.88;5123943;27;20560;-71
2021/06/16 08:21:16;;;;;;;7.20;6.67;;;;;;;24.63;51.41;98011.97;5124506;27;20214;-70
2021/06/16 08:23:45;;;;;;;7.33;6.70;;;;;;;24.78;51.23;98011.34;5125116;27;20203;-72
2021/06/16 08:26:13;;;;;;;7.17;6.67;;;;;;;25.01;51.13;98012.91;5124219;27;20228;-71
2021/06/16 08:28:41;;;;;;;7.23;6.73;;;;;;;25.10;49.28;98010.53;5125108;27;20199;-72
2021/06/16 08:31:09;;;;;;;7.23;6.37;;;;;;;25.21;48.50;98006.03;5123191;27;20209;-71
2021/06/16 08:33:39;;;;;;;7.07;6.47;;;;;;;25.33;48.32;98006.66;5125191;27;20235;-72
2021/06/16 08:36:07;;;;;;;7.00;6.40;;;;;;;25.75;47.77;98007.72;5122111;27;20204;-70
2021/06/16 08:38:37;;;;;;;8.77;6.70;;;;;;;25.53;48.01;98002.44;5121999;27;20581;-72
2021/06/16 08:41:07;;;;;;;8.30;7.13;;;;;;;25.92;44.99;98007.53;5124326;27;20604;-72
2021/06/16 08:43:37;;;;;;;9.23;7.20;;;;;;;25.84;45.76;98005.34;5124211;27;20203;-72
2021/06/16 08:46:07;;;;;;;6.80;6.40;;;;;;;25.62;49.49;98005.50;5120549;27;20244;-72
2021/06/16 08:48:36;;;;;;;8.27;7.40;;;;;;;25.63;48.32;98010.66;5121784;27;20203;-71
2021/06/16 08:51:05;;;;;;;8.00;6.60;;;;;;;25.92;47.12;98007.53;5124238;27;20215;-69
2021/06/16 08:53:33;;;;;;;7.77;7.27;;;;;;;26.17;46.32;98003.34;5119214;27;20219;-72
2021/06/16 08:56:04;;;;;;;7.53;6.93;;;;;;;26.06;47.51;98001.66;5124093;27;20500;-72
2021/06/16 08:58:35;;;;;;;7.27;6.53;;;;;;;25.91;47.27;97999.69;5121721;27;20204;-71
2021/06/16 09:01:04;;;;;;;6.80;6.30;;;;;;;26.00;46.93;97993.50;5123212;27;20232;-71
2021/06/16 09:03:33;;;;;;;6.80;6.20;;;;;;;26.44;43.68;97996.91;5123601;27;20214;-72
2021/06/16 09:06:05;;;;;;;7.53;5.90;;;;;;;26.48;44.19;97998.00;5124125;27;20204;-72
2021/06/16 09:08:33;;;;;;;6.40;5.80;;;;;;;26.55;44.32;97993.13;5122753;27;20216;-71
2021/06/16 09:11:01;;;;;;;6.00;5.40;;;;;;;26.69;43.14;97992.59;5125663;27;20201;-72
2021/06/16 09:13:32;;;;;;;7.90;6.00;;;;;;;26.79;42.60;97991.78;5123688;27;20487;-72
2021/06/16 09:16:02;;;;;;;7.20;6.60;;;;;;;26.89;42.43;97991.81;5122513;27;20212;-71
2021/06/16 09:18:43;;;;;;;6.87;6.27;;;;;;;26.67;43.39;97986.63;5123489;27;20672;-71
2021/06/16 09:21:11;;;;;;;6.13;5.63;;;;;;;26.76;44.04;97989.63;5121655;27;20235;-71
2021/06/16 09:23:42;;;;;;;6.80;6.13;;;;;;;26.99;43.17;97985.59;5124319;27;20207;-72
2021/06/16 09:26:11;;;;;;;7.20;6.10;;;;;;;27.21;43.15;97988.00;5119695;27;20815;-72
2021/06/16 09:28:41;;;;;;;4.33;3.97;;;;;;;27.19;38.11;97987.47;5121693;27;20558;-72
2021/06/16 09:31:11;;;;;;;5.90;4.90;;;;;;;27.07;38.89;97985.03;5119959;27;20207;-72
2021/06/16 09:33:39;;;;;;;5.67;5.27;;;;;;;27.38;41.05;97989.66;5122255;27;20718;-72
2021/06/16 09:36:10;;;;;;;5.00;4.67;;;;;;;27.29;38.52;97987.50;5120634;27;20206;-73
2021/06/16 09:38:38;;;;;;;4.43;4.00;;;;;;;27.21;37.28;97987.22;5122484;27;20200;-70
2021/06/16 09:41:10;;;;;;;4.43;4.03;;;;;;;27.34;38.25;97985.84;5123593;27;20197;-72
2021/06/16 09:43:41;;;;;;;4.60;4.30;;;;;;;27.43;37.86;97985.00;5122333;27;20838;-71
2021/06/16 09:46:10;;;;;;;6.87;4.73;;;;;;;27.33;39.15;97976.06;5121713;27;20214;-72
2021/06/16 09:48:39;;;;;;;4.97;4.30;;;;;;;27.50;39.01;97986.63;5122051;27;20323;-72
2021/06/16 09:51:17;;;;;;;4.37;4.07;;;;;;;27.66;38.14;97980.09;5101758;27;20197;-71
2021/06/16 09:54:14;;;;;;;6.00;5.10;;;;;;;27.63;38.43;97974.38;5122044;27;20713;-72
2021/06/16 09:56:45;;;;;;;5.07;4.77;;;;;;;27.73;39.81;97983.31;5122680;27;20492;-72
2021/06/16 09:59:14;;;;;;;5.30;4.90;;;;;;;27.63;36.97;97983.34;5121442;27;20213;-69
2021/06/16 10:01:46;;;;;;;4.30;4.00;;;;;;;27.89;35.54;97980.56;5123650;27;20573;-72
2021/06/16 10:04:50;;;;;;;4.93;4.53;;;;;;;27.80;38.71;97974.88;5120248;27;20287;-71
2021/06/16 10:07:19;;;;;;;5.10;4.73;;;;;;;27.97;35.80;97976.44;5037849;28;20223;-72
2021/06/16 10:09:49;;;;;;;4.07;3.80;;;;;;;27.86;34.85;97970.22;5039096;28;20223;-72
2021/06/16 10:12:18;;;;;;;3.87;3.57;;;;;;;28.05;34.89;97972.31;5076771;27;20597;-72
2021/06/16 10:14:47;;;;;;;4.20;4.00;;;;;;;27.94;33.36;97972.38;5122544;27;20616;-71
2021/06/16 10:17:15;;;;;;;4.17;3.87;;;;;;;27.92;33.65;97965.56;5121060;27;20220;-73
2021/06/16 10:19:44;;;;;;;4.50;4.10;;;;;;;28.14;35.44;97970.63;5122349;27;20319;-73
2021/06/16 10:22:12;;;;;;;5.70;4.30;;;;;;;28.41;34.05;97964.81;5122467;27;20211;-72
2021/06/16 10:24:41;;;;;;;4.07;3.67;;;;;;;28.48;33.77;97964.47;5119570;27;20211;-70
2021/06/16 10:27:10;;;;;;;5.80;4.00;;;;;;;28.47;33.98;97953.88;5120384;28;20224;-71
2021/06/16 10:29:40;;;;;;;3.90;3.70;;;;;;;28.47;33.63;97954.69;5120627;28;20208;-73
2021/06/16 10:32:12;;;;;;;7.07;4.40;;;;;;;28.51;35.07;97954.94;5123411;28;20204;-71
2021/06/16 10:34:59;;;;;;;4.80;3.63;;;;;;;28.32;33.96;97950.13;5122492;28;20228;-72
2021/06/16 10:37:29;;;;;;;3.93;3.63;;;;;;;28.50;34.27;97951.38;5121555;28;20216;-71
2021/06/16 10:40:25;;;;;;;3.90;3.60;;;;;;;29.10;31.38;97942.22;5122316;28;20197;-72
2021/06/16 10:43:14;;;;;;;4.13;3.83;;;;;;;28.58;33.15;97942.59;5117980;28;20647;-72
2021/06/16 10:45:49;;;;;;;4.40;4.00;;;;;;;29.23;33.11;97939.91;5120973;27;20205;-72
2021/06/16 10:48:19;;;;;;;4.33;3.77;;;;;;;30.66;30.60;97934.91;5121890;27;20221;-72
2021/06/16 10:51:07;;;;;;;5.40;3.60;;;;;;;30.64;31.09;97935.19;5121492;28;20213;-73
2021/06/16 10:53:35;;;;;;;4.40;4.00;;;;;;;29.52;31.74;97939.09;5115489;28;20200;-71
2021/06/16 10:56:07;;;;;;;4.10;3.80;;;;;;;29.93;31.80;97943.25;5122449;28;20721;-72
2021/06/16 10:58:45;;;;;;;3.83;3.63;;;;;;;31.06;28.09;97932.59;5121204;28;20213;-73
2021/06/16 11:01:14;;;;;;;4.27;3.50;;;;;;;32.73;26.60;97928.06;5121570;27;20291;-70
2021/06/16 11:04:05;;;;;;;4.03;3.60;;;;;;;32.66;26.69;97928.53;5122819;27;20201;-71
2021/06/16 11:06:37;;;;;;;4.00;3.80;;;;;;;33.18;26.71;97930.81;5121861;27;20280;-72
2021/06/16 11:09:07;;;;;;;4.18;3.40;;;;;;;32.95;28.04;97929.22;5121093;27;20200;-71
2021/06/16 11:12:09;;;;;;;3.70;3.50;;;;;;;33.03;27.05;97922.97;5122896;27;20211;-70
2021/06/16 11:14:49;;;;;;;4.43;4.13;;;;;;;32.09;28.20;97920.78;5119693;27;20337;-70
2021/06/16 11:17:42;;;;;;;4.20;3.90;;;;;;;32.14;27.73;97929.69;5120586;28;20224;-70
2021/06/16 11:20:14;;;;;;;4.10;3.78;;;;;;;31.66;29.44;97919.19;5121048;28;20206;-72
2021/06/16 11:23:04;;;;;;;4.03;3.65;;;;;;;32.15;27.76;97925.03;5117693;28;20203;-72
2021/06/16 11:25:37;;;;;;;5.43;3.47;;;;;;;32.86;26.09;97915.41;5113103;28;20724;-72
2021/06/16 11:28:08;;;;;;;4.18;3.88;;;;;;;32.48;26.59;97914.69;5120027;28;20219;-72
2021/06/16 11:30:48;;;;;;;3.88;3.58;;;;;;;32.11;26.73;97913.84;5119941;28;20218;-72
2021/06/16 11:33:40;;;;;;;3.78;3.47;;;;;;;33.23;26.70;97907.91;5118888;28;20289;-71
2021/06/16 11:36:14;;;;;;;3.88;3.58;;;;;;;33.32;26.84;97897.75;5124537;27;20222;-70
2021/06/16 11:38:43;;;;;;;3.90;3.47;;;;;;;32.51;29.69;97893.25;5125417;27;20196;-73
2021/06/16 11:41:16;;;;;;;3.50;3.20;;;;;;;33.41;25.56;97897.81;5123937;27;20198;-72
2021/06/16 11:43:46;;;;;;;3.90;3.60;;;;;;;32.43;27.64;97890.13;5123603;27;20200;-72